Terminal Aerodrome Forecast
Issued by NWS

Home | Current Version | Previous Version | Text Only | Print | Product List | Glossary On
Versions: 1 2 3 4 5 6 7 8 9 10 11 12 13 14 15 16 17
000
FTUS45 KLKN 232359 AAA
TAFWMC
TAF AMD
KWMC 232359Z 2400/2424 VRB06KT P6SM SCT050 SCT100 BKN200
     FM240400 19005KT P6SM SCT050 BKN100
     FM241200 17010KT P6SM OVC050
     FM241800 19015G25KT P6SM VCSH OVC050
     FM242100 20020G30KT 4SM -SHSN OVC050
      TEMPO 2421/2424 1SM -SHSN BLSN BR OVC030=

USA.gov is the U.S. government's official web portal to all federal, state and local government web resources and services.